Sand Key, FL current weather conditions

sailwx.info

Wind from 070 at 19 knots gusting 22

Air temperature 24.7° C

Last reported at 2014-Oct-23 01:50 UTC.
Time now 2014-Oct-23 03:04 UTC

Location: N 24°28' W 081°53'.
View on Google Maps.

See reports from other nearby stations

  
Tides and Currents Weather Stations Pressure Air Temp Water Temp Dewpoint Dewpoint Depression Visibility Wind Speed Wind Dir Waves Ship Positions
date/time (UTC)wind fromknots sea level pressurealtimeterstation pressurevisibilityair tempwater tempwave heightnotes
2014-Oct-23 01:50 070 19 gusting 22 24.7
2014-Oct-23 00:50 060 19 gusting 22 24.1
2014-Oct-22 22:50 090 13 gusting 15 23.9
2014-Oct-22 21:50 070 14 gusting 16 24.0
2014-Oct-22 20:50 050 14 gusting 15 23.5
2014-Oct-22 19:50 030 12 gusting 13 23.1
2014-Oct-22 18:50 130 4 gusting 6 23.5
2014-Oct-22 17:50 080 12 gusting 14 25.4
2014-Oct-22 16:50 070 11 gusting 13 26.3
2014-Oct-22 15:50 090 10 gusting 12 26.8
2014-Oct-22 14:50 070 15 gusting 18 26.3
2014-Oct-22 13:50 060 12 gusting 13 26.5
2014-Oct-22 12:50 100 10 gusting 12 27.3
2014-Oct-22 11:50 100 8 gusting 10 27.1
2014-Oct-22 10:50 100 8 gusting 10 27.0
2014-Oct-22 09:50 110 9 gusting 11 26.8
2014-Oct-22 08:50 120 10 gusting 12 26.8
2014-Oct-22 07:50 100 7 gusting 9 26.4
2014-Oct-22 06:50 110 9 gusting 11 26.2
2014-Oct-22 05:50 090 6 gusting 8 26.4
2014-Oct-22 04:50 140 6 gusting 7 26.2
2014-Oct-22 03:50 070 3 gusting 4 25.6
2014-Oct-22 02:50 180 17 gusting 19 25.2
2014-Oct-22 01:50 140 8 gusting 10 26.0
2014-Oct-22 00:50 140 5 gusting 6 26.0
2014-Oct-21 22:50 170 5 gusting 7 25.3
2014-Oct-21 21:50 180 4 gusting 5 24.6
2014-Oct-21 20:50 180 3 gusting 4 24.2
2014-Oct-21 19:50 110 6 gusting 8 23.8
2014-Oct-21 18:50 090 8 gusting 10 23.6
2014-Oct-21 17:50 060 8 gusting 10 23.5
2014-Oct-21 16:50 200 7 gusting 12 23.4
2014-Oct-21 15:50 240 14 gusting 20 22.1
2014-Oct-21 14:50 220 13 gusting 16 24.4
2014-Oct-21 13:50 180 13 gusting 22 26.9
2014-Oct-21 12:50 160 7 gusting 9 27.2
2014-Oct-21 11:50 140 9 gusting 10 26.9
2014-Oct-21 10:50 26.9
2014-Oct-21 09:50 070 13 gusting 43 26.9
2014-Oct-21 08:50 200 10 gusting 12 26.8
2014-Oct-21 07:50 180 5 gusting 10 26.5
2014-Oct-21 06:50 060 23 gusting 23 26.8
2014-Oct-21 05:50 090 6 gusting 7 26.6
2014-Oct-21 04:50 100 11 gusting 25 26.4
2014-Oct-21 03:50 170 10 gusting 13 26.1